WetterOnline ( http://www.wetteronline.de )

Wetter aktuell Inchenhofen

Aktuelles Wetter: Augsburg/Mühlhausen (477m)

6-stündlich | Neueste Meldungen
Ortszeit Temperatur Wetter
Mo, 25.03. 7:00 4.4° C leicht bewölkt
Mo, 25.03. 1:00 4.5° C bewölkt
So, 24.03. 19:00 11.4° C bewölkt
So, 24.03. 13:00 16.3° C wolkenlos
So, 24.03. 7:00 -1.4° C Nebel
So, 24.03. 1:00 0.9° C wolkenlos
Sa, 23.03. 19:00 8.6° C wolkenlos
Sa, 23.03. 13:00 16.6° C wolkenlos
Ortszeit Temperatur Wetter
Mo, 25.03. 8:50 6° C -
Mo, 25.03. 8:30 5.9° C wolkenlos
Mo, 25.03. 8:20 5.9° C wolkenlos
Mo, 25.03. 8:10 5.7° C wolkenlos
Mo, 25.03. 8:00 5.3° C wolkenlos
Mo, 25.03. 7:50 5.3° C wolkenlos
Mo, 25.03. 7:30 4.5° C wolkenlos
Mo, 25.03. 7:00 4.4° C leicht bewölkt
Mo, 25.03. 6:30 5.6° C bewölkt
Mo, 25.03. 6:00 6.5° C bewölkt
Mo, 25.03. 5:30 6.5° C bewölkt
Ortszeit Relative Feuchte Sichtweite
Mo, 25.03. 7:00 70% 11 km
Mo, 25.03. 1:00 91% 3.1 km
So, 24.03. 19:00 66% 5.0 km
So, 24.03. 13:00 46% 8 km
So, 24.03. 7:00 96% 0.2 km
So, 24.03. 1:00 92% 4.0 km
Sa, 23.03. 19:00 74% 12 km
Sa, 23.03. 13:00 42% 9 km
Ortszeit Relative Feuchte Sichtweite
Mo, 25.03. 8:50 61% >10 km
Mo, 25.03. 8:30 63% 16 km
Mo, 25.03. 8:20 63% -
Mo, 25.03. 8:10 64% -
Mo, 25.03. 8:00 69% 12 km
Mo, 25.03. 7:50 69% -
Mo, 25.03. 7:30 73% 11 km
Mo, 25.03. 7:00 70% 11 km
Mo, 25.03. 6:30 74% 8 km
Mo, 25.03. 6:00 78% 6 km
Mo, 25.03. 5:30 84% 3.8 km
Ortszeit Niederschlagsmenge Niederschlagsart
Mo, 25.03. 7:00 0.1 l/m2 in 12 Std. Regen
Mo, 25.03. 1:00 0.0 l/m2 in 6 Std. -
So, 24.03. 19:00 0.0 l/m2 in 12 Std. -
So, 24.03. 13:00 0.0 l/m2 in 6 Std. -
So, 24.03. 7:00 0.0 l/m2 in 12 Std. -
So, 24.03. 1:00 0.0 l/m2 in 6 Std. -
Sa, 23.03. 19:00 0.0 l/m2 in 12 Std. -
Sa, 23.03. 13:00 0.0 l/m2 in 6 Std. -
Ortszeit Niederschlagsmenge Niederschlagsart
Mo, 25.03. 8:50 keine Meldung -
Mo, 25.03. 8:30 0.0 l/m2 in 1 Std. -
Mo, 25.03. 8:20 keine Meldung -
Mo, 25.03. 8:10 keine Meldung -
Mo, 25.03. 8:00 0.0 l/m2 in 1 Std. -
Mo, 25.03. 7:50 keine Meldung -
Mo, 25.03. 7:30 0.0 l/m2 in 1 Std. -
Mo, 25.03. 7:00 0.0 l/m2 in 1 Std. Regen
Mo, 25.03. 6:30 0.0 l/m2 in 1 Std. -
Mo, 25.03. 6:00 0.0 l/m2 in 1 Std. -
Mo, 25.03. 5:30 0.0 l/m2 in 1 Std. -
Ortszeit Stärke Spitze Richtung
km/h Bft. km/h Grad Sektor
Mo, 25.03. 7:00 18 3 29 330° NW
Mo, 25.03. 1:00 4 1 29 160° S
So, 24.03. 19:00 22 4 36 360° N
So, 24.03. 13:00 7 2 14 330° NW
So, 24.03. 7:00 4 1 7 160° S
So, 24.03. 1:00 4 1 11 160° S
Sa, 23.03. 19:00 7 2 22 90° O
Sa, 23.03. 13:00 7 2 14 200° S
Ortszeit Stärke Spitze Richtung
km/h Bft. km/h Grad Sektor
Mo, 25.03. 8:50 28 4 - 300° NW
Mo, 25.03. 8:30 20 4 30 310° NW
Mo, 25.03. 8:20 20 4 - 310° NW
Mo, 25.03. 8:10 18 3 - 310° NW
Mo, 25.03. 8:00 14 3 22 310° NW
Mo, 25.03. 7:50 14 3 - 310° NW
Mo, 25.03. 7:30 9 2 20 310° NW
Mo, 25.03. 7:00 18 3 29 330° NW
Mo, 25.03. 6:30 20 4 28 300° NW
Mo, 25.03. 6:00 18 3 25 290° W
Mo, 25.03. 5:30 11 2 14 270° W
Ortszeit Untergrenze Bedeckung Gattung
total tief tief mittel hoch
Mo, 25.03. 7:00 660 m 3/8 3/8 - - -
Mo, 25.03. 1:00 1500 m 7/8 7/8 - - -
So, 24.03. 19:00 1800 m 7/8 7/8 - - -
So, 24.03. 13:00 - 0/8 0/8 - - -
So, 24.03. 7:00 - 0/8 0/8 - - -
So, 24.03. 1:00 - 0/8 0/8 - - -
Sa, 23.03. 19:00 - 0/8 0/8 - - -
Sa, 23.03. 13:00 - 0/8 0/8 - - -
Ortszeit Bedeckungsgrad in Achtel und Wolkenuntergrenze
Mo, 25.03. 8:50 keine Wolken(unter 1500 m)
Mo, 25.03. 8:30 keine Wolken
Mo, 25.03. 8:20 keine Wolken
Mo, 25.03. 8:10 keine Wolken
Mo, 25.03. 8:00 keine Wolken
Mo, 25.03. 7:50 keine Wolken
Mo, 25.03. 7:30 1(1800m)
Mo, 25.03. 7:00 2(660m) 3(840m)
Mo, 25.03. 6:30 2(660m) 3(960m) 7(1500m)
Mo, 25.03. 6:00 4(1140m) 7(1410m)
Mo, 25.03. 5:30 2(630m) 5(1140m) 7(1380m)
Ortszeit Luftdruck NN (hPa) Tendenz (hPa in 3 Std.)
Mo, 25.03. 7:00 1022 + 0,2
Mo, 25.03. 1:00 1022 - 1,6
So, 24.03. 19:00 1021 + 1,2
So, 24.03. 13:00 1021 - 1,7
So, 24.03. 7:00 1027 - 0,2
So, 24.03. 1:00 1028 - 1,0
Sa, 23.03. 19:00 1027 + 0,1
Sa, 23.03. 13:00 1026 - 1,0
Ortszeit Luftdruck NN (hPa) Tendenz (hPa in 3 Std.)
Mo, 25.03. 8:50 1020 keine Meldung
Mo, 25.03. 8:30 1021 + 0,5
Mo, 25.03. 8:20 1021 keine Meldung
Mo, 25.03. 8:10 1021 keine Meldung
Mo, 25.03. 8:00 1021 + 0,4
Mo, 25.03. 7:50 1021 keine Meldung
Mo, 25.03. 7:30 1022 + 0,2
Mo, 25.03. 7:00 1022 + 0,2
Mo, 25.03. 6:30 1021 - 0,3
Mo, 25.03. 6:00 1021 - 0,6
Mo, 25.03. 5:30 1021 - 0,8
Ortszeit Schneehöhe (cm)
Mo, 25.03. 7:00 0
Mo, 25.03. 1:00 0
So, 24.03. 19:00 0
So, 24.03. 13:00 0
So, 24.03. 7:00 1
So, 24.03. 1:00 0
Sa, 23.03. 19:00 0
Sa, 23.03. 13:00 0
Ortszeit Schneehöhe (cm)
Mo, 25.03. 8:50 -
Mo, 25.03. 8:30 0
Mo, 25.03. 8:20 0
Mo, 25.03. 8:10 0
Mo, 25.03. 8:00 0
Mo, 25.03. 7:50 0
Mo, 25.03. 7:30 0
Mo, 25.03. 7:00 0
Mo, 25.03. 6:30 0
Mo, 25.03. 6:00 0
Mo, 25.03. 5:30 0
Link zu dieser Seite / Seite empfehlen

Das Wetter in ...